This is the latest recevied weather packets stored in our database for station/object OE-11061. If no packets are shown the sender has not sent any weather packets the latest 10 day(s).
| Time | Temp. | Humidity | Pressure | Rain* | Wind** | Luminosity | Snow |
|---|---|---|---|---|---|---|---|
| 1787918120 | 31.67° C | 56% | 1007 hPa | 0 mm | - | 441 W/m² | - |
| 1787917293 | 32.22° C | 51% | 1007 hPa | 0 mm | - | 478 W/m² | - |
| 1787916921 | 32.22° C | 50% | 1006.8 hPa | 0 mm | - | 792 W/m² | - |
| 1787916321 | 31.67° C | 54% | 1007.1 hPa | 0 mm | - | 396 W/m² | - |
| 1787915493 | 31.67° C | 50% | 1007.1 hPa | 0 mm | - | 739 W/m² | - |
| 1787915121 | 31.67° C | 51% | 1006.9 hPa | 0 mm | - | 650 W/m² | - |
| 1787914521 | 31.67° C | 55% | 1006.9 hPa | 0 mm | - | 672 W/m² | - |
| 1787913694 | 30.56° C | 53% | 1007.1 hPa | 0 mm | - | 702 W/m² | - |
| 1787913321 | 30° C | 52% | 1007.2 hPa | 0 mm | - | 605 W/m² | - |
| 1787912721 | 30° C | 52% | 1007.2 hPa | 0 mm | - | 724 W/m² | - |
| 1787911894 | 29.44° C | 54% | 1007.3 hPa | 0 mm | - | 702 W/m² | - |
| 1787911521 | 29.44° C | 53% | 1007.3 hPa | 0 mm | - | 680 W/m² | - |
| 1787910920 | 29.44° C | 56% | 1007 hPa | 0 mm | - | 672 W/m² | - |
| 1787910094 | 28.89° C | 58% | 1006.8 hPa | 0 mm | - | 657 W/m² | - |
| 1787909721 | 28.89° C | 58% | 1007.3 hPa | 0 mm | - | 642 W/m² | - |
| 1787909121 | 28.33° C | 57% | 1007.6 hPa | 0 mm | - | 620 W/m² | - |
| 1787908293 | 27.78° C | 59% | 1007.8 hPa | 0 mm | - | 553 W/m² | - |
| 1787907921 | 27.78° C | 62% | 1008.1 hPa | 0 mm | - | 642 W/m² | - |
| 1787907321 | 27.22° C | 66% | 1008.8 hPa | 0 mm | - | 553 W/m² | - |
| 1787906493 | 26.67° C | 66% | 1009 hPa | 0 mm | - | 583 W/m² | - |
| 1787906119 | 25.56° C | 69% | 1009.2 hPa | 0 mm | - | 508 W/m² | - |
| 1787905519 | 25° C | 68% | 1009.3 hPa | 0 mm | - | 523 W/m² | - |
| 1787904694 | 24.44° C | 72% | 1009.6 hPa | 0 mm | - | 463 W/m² | - |
| 1787904321 | 23.89° C | 74% | 1009.7 hPa | 0 mm | - | 463 W/m² | - |
| 1787903721 | 23.33° C | 78% | 1009.8 hPa | 0 mm | - | 433 W/m² | - |
* Rain latest hour (hover to see other rain measurements)
** Current wind speed in m/s (hover to see current wind gust speed)